sensor_id;sensor_type;location;lat;lon;timestamp;P1;durP1;ratioP1;P2;durP2;ratioP2
71562;SDS011;59391;52.504;13.438;2023-04-29T00:01:13;13.20;;;8.77;;
71562;SDS011;59391;52.504;13.438;2023-04-29T00:03:39;12.80;;;8.23;;
71562;SDS011;59391;52.504;13.438;2023-04-29T00:06:05;13.82;;;8.90;;
71562;SDS011;59391;52.504;13.438;2023-04-29T00:08:31;12.77;;;9.00;;
71562;SDS011;59391;52.504;13.438;2023-04-29T00:10:56;13.23;;;8.98;;
71562;SDS011;59391;52.504;13.438;2023-04-29T00:13:22;13.17;;;8.73;;
71562;SDS011;59391;52.504;13.438;2023-04-29T00:15:48;13.77;;;9.45;;
71562;SDS011;59391;52.504;13.438;2023-04-29T00:18:14;13.10;;;9.30;;
71562;SDS011;59391;52.504;13.438;2023-04-29T00:20:40;13.57;;;9.40;;
71562;SDS011;59391;52.504;13.438;2023-04-29T00:23:07;15.63;;;8.82;;
71562;SDS011;59391;52.504;13.438;2023-04-29T00:25:33;12.20;;;9.15;;
71562;SDS011;59391;52.504;13.438;2023-04-29T00:27:59;12.97;;;9.10;;
71562;SDS011;59391;52.504;13.438;2023-04-29T00:30:26;12.70;;;9.10;;
71562;SDS011;59391;52.504;13.438;2023-04-29T00:32:52;13.20;;;9.35;;
71562;SDS011;59391;52.504;13.438;2023-04-29T00:35:19;14.35;;;9.23;;
71562;SDS011;59391;52.504;13.438;2023-04-29T00:37:45;12.75;;;8.77;;
71562;SDS011;59391;52.504;13.438;2023-04-29T00:40:11;13.23;;;8.77;;
71562;SDS011;59391;52.504;13.438;2023-04-29T00:42:39;13.38;;;8.73;;
71562;SDS011;59391;52.504;13.438;2023-04-29T00:45:05;13.80;;;9.75;;
71562;SDS011;59391;52.504;13.438;2023-04-29T00:47:32;13.05;;;9.27;;
71562;SDS011;59391;52.504;13.438;2023-04-29T00:49:58;15.07;;;9.80;;
71562;SDS011;59391;52.504;13.438;2023-04-29T00:52:24;16.00;;;9.82;;
71562;SDS011;59391;52.504;13.438;2023-04-29T00:54:54;13.13;;;8.88;;
71562;SDS011;59391;52.504;13.438;2023-04-29T00:57:20;13.90;;;9.50;;
71562;SDS011;59391;52.504;13.438;2023-04-29T00:59:47;12.40;;;9.02;;
71562;SDS011;59391;52.504;13.438;2023-04-29T01:02:13;12.15;;;9.27;;
71562;SDS011;59391;52.504;13.438;2023-04-29T01:04:41;13.88;;;9.27;;
71562;SDS011;59391;52.504;13.438;2023-04-29T01:10:09;15.32;;;9.77;;
71562;SDS011;59391;52.504;13.438;2023-04-29T01:13:03;12.20;;;9.23;;
71562;SDS011;59391;52.504;13.438;2023-04-29T01:15:53;14.18;;;9.63;;
71562;SDS011;59391;52.504;13.438;2023-04-29T01:18:33;14.40;;;9.43;;
71562;SDS011;59391;52.504;13.438;2023-04-29T01:21:07;15.82;;;9.40;;
71562;SDS011;59391;52.504;13.438;2023-04-29T01:23:33;14.90;;;10.90;;
71562;SDS011;59391;52.504;13.438;2023-04-29T01:25:58;16.67;;;10.27;;
71562;SDS011;59391;52.504;13.438;2023-04-29T01:28:39;13.87;;;9.17;;
71562;SDS011;59391;52.504;13.438;2023-04-29T01:31:27;14.35;;;10.55;;
71562;SDS011;59391;52.504;13.438;2023-04-29T01:36:46;15.70;;;11.18;;
71562;SDS011;59391;52.504;13.438;2023-04-29T01:42:44;18.05;;;11.23;;
71562;SDS011;59391;52.504;13.438;2023-04-29T01:45:19;17.13;;;10.95;;
71562;SDS011;59391;52.504;13.438;2023-04-29T01:47:46;16.00;;;10.55;;
71562;SDS011;59391;52.504;13.438;2023-04-29T01:50:17;17.15;;;11.40;;
71562;SDS011;59391;52.504;13.438;2023-04-29T01:52:42;15.97;;;10.77;;
71562;SDS011;59391;52.504;13.438;2023-04-29T01:55:08;14.67;;;11.07;;
71562;SDS011;59391;52.504;13.438;2023-04-29T01:57:35;16.40;;;11.70;;
71562;SDS011;59391;52.504;13.438;2023-04-29T02:00:00;17.92;;;11.52;;
71562;SDS011;59391;52.504;13.438;2023-04-29T02:02:26;16.70;;;10.90;;
71562;SDS011;59391;52.504;13.438;2023-04-29T02:04:51;19.00;;;11.50;;
71562;SDS011;59391;52.504;13.438;2023-04-29T02:07:17;15.95;;;12.13;;
71562;SDS011;59391;52.504;13.438;2023-04-29T02:09:43;18.80;;;11.63;;
71562;SDS011;59391;52.504;13.438;2023-04-29T02:12:08;17.63;;;12.10;;
71562;SDS011;59391;52.504;13.438;2023-04-29T02:14:34;17.00;;;11.97;;
71562;SDS011;59391;52.504;13.438;2023-04-29T02:17:00;16.20;;;11.90;;
71562;SDS011;59391;52.504;13.438;2023-04-29T02:19:25;17.20;;;12.83;;
71562;SDS011;59391;52.504;13.438;2023-04-29T02:21:51;16.13;;;11.65;;
71562;SDS011;59391;52.504;13.438;2023-04-29T02:24:17;17.60;;;12.27;;
71562;SDS011;59391;52.504;13.438;2023-04-29T02:26:42;17.87;;;12.40;;
71562;SDS011;59391;52.504;13.438;2023-04-29T02:29:08;18.48;;;12.90;;
71562;SDS011;59391;52.504;13.438;2023-04-29T02:31:34;20.23;;;13.53;;
71562;SDS011;59391;52.504;13.438;2023-04-29T02:34:00;20.42;;;13.75;;
71562;SDS011;59391;52.504;13.438;2023-04-29T02:36:25;18.23;;;12.77;;
71562;SDS011;59391;52.504;13.438;2023-04-29T02:38:51;18.52;;;13.23;;
71562;SDS011;59391;52.504;13.438;2023-04-29T02:41:19;20.48;;;13.43;;
71562;SDS011;59391;52.504;13.438;2023-04-29T02:43:45;18.20;;;13.10;;
71562;SDS011;59391;52.504;13.438;2023-04-29T02:46:10;19.65;;;13.48;;
71562;SDS011;59391;52.504;13.438;2023-04-29T02:48:36;20.47;;;14.43;;
71562;SDS011;59391;52.504;13.438;2023-04-29T02:51:02;22.35;;;14.90;;
71562;SDS011;59391;52.504;13.438;2023-04-29T02:53:28;22.40;;;14.57;;
71562;SDS011;59391;52.504;13.438;2023-04-29T02:55:53;21.80;;;15.02;;
71562;SDS011;59391;52.504;13.438;2023-04-29T02:58:19;22.35;;;14.43;;
71562;SDS011;59391;52.504;13.438;2023-04-29T03:00:45;19.60;;;14.53;;
71562;SDS011;59391;52.504;13.438;2023-04-29T03:03:10;25.38;;;14.80;;
71562;SDS011;59391;52.504;13.438;2023-04-29T03:05:36;21.02;;;14.68;;
71562;SDS011;59391;52.504;13.438;2023-04-29T03:08:02;25.37;;;16.80;;
71562;SDS011;59391;52.504;13.438;2023-04-29T03:10:28;22.25;;;14.93;;
71562;SDS011;59391;52.504;13.438;2023-04-29T03:12:54;21.67;;;14.55;;
71562;SDS011;59391;52.504;13.438;2023-04-29T03:15:20;20.77;;;14.13;;
71562;SDS011;59391;52.504;13.438;2023-04-29T03:17:46;21.27;;;14.73;;
71562;SDS011;59391;52.504;13.438;2023-04-29T03:20:12;23.95;;;16.63;;
71562;SDS011;59391;52.504;13.438;2023-04-29T03:22:38;22.42;;;15.38;;
71562;SDS011;59391;52.504;13.438;2023-04-29T03:25:04;21.60;;;15.37;;
71562;SDS011;59391;52.504;13.438;2023-04-29T03:27:30;21.77;;;15.95;;
71562;SDS011;59391;52.504;13.438;2023-04-29T03:29:56;24.57;;;16.20;;
71562;SDS011;59391;52.504;13.438;2023-04-29T03:32:22;24.42;;;16.00;;
71562;SDS011;59391;52.504;13.438;2023-04-29T03:34:48;22.50;;;15.77;;
71562;SDS011;59391;52.504;13.438;2023-04-29T03:37:13;24.77;;;16.65;;
71562;SDS011;59391;52.504;13.438;2023-04-29T03:39:40;24.85;;;16.02;;
71562;SDS011;59391;52.504;13.438;2023-04-29T03:42:06;25.33;;;16.30;;
71562;SDS011;59391;52.504;13.438;2023-04-29T03:44:32;24.53;;;16.67;;
71562;SDS011;59391;52.504;13.438;2023-04-29T03:46:58;25.63;;;17.67;;
71562;SDS011;59391;52.504;13.438;2023-04-29T03:49:24;23.85;;;16.60;;
71562;SDS011;59391;52.504;13.438;2023-04-29T03:51:50;25.25;;;17.13;;
71562;SDS011;59391;52.504;13.438;2023-04-29T03:54:15;26.27;;;17.60;;
71562;SDS011;59391;52.504;13.438;2023-04-29T03:56:41;26.10;;;17.85;;
71562;SDS011;59391;52.504;13.438;2023-04-29T03:59:07;24.90;;;17.02;;
71562;SDS011;59391;52.504;13.438;2023-04-29T04:01:33;25.55;;;17.23;;
71562;SDS011;59391;52.504;13.438;2023-04-29T04:03:58;25.92;;;17.17;;
71562;SDS011;59391;52.504;13.438;2023-04-29T04:06:24;27.60;;;18.40;;
71562;SDS011;59391;52.504;13.438;2023-04-29T04:08:50;26.27;;;18.10;;
71562;SDS011;59391;52.504;13.438;2023-04-29T04:11:16;26.90;;;17.17;;
71562;SDS011;59391;52.504;13.438;2023-04-29T04:13:41;29.65;;;18.85;;
71562;SDS011;59391;52.504;13.438;2023-04-29T04:16:08;28.83;;;18.60;;
71562;SDS011;59391;52.504;13.438;2023-04-29T04:18:37;28.85;;;19.17;;
71562;SDS011;59391;52.504;13.438;2023-04-29T04:21:06;29.90;;;19.23;;
71562;SDS011;59391;52.504;13.438;2023-04-29T04:23:36;31.10;;;18.92;;
71562;SDS011;59391;52.504;13.438;2023-04-29T04:26:05;30.05;;;18.92;;
71562;SDS011;59391;52.504;13.438;2023-04-29T04:28:31;29.02;;;18.85;;
71562;SDS011;59391;52.504;13.438;2023-04-29T04:30:57;28.55;;;18.90;;
71562;SDS011;59391;52.504;13.438;2023-04-29T04:33:22;29.83;;;19.00;;
71562;SDS011;59391;52.504;13.438;2023-04-29T04:35:50;29.67;;;19.25;;
71562;SDS011;59391;52.504;13.438;2023-04-29T04:38:15;29.67;;;19.38;;
71562;SDS011;59391;52.504;13.438;2023-04-29T04:40:41;32.17;;;19.80;;
71562;SDS011;59391;52.504;13.438;2023-04-29T04:43:08;30.98;;;18.52;;
71562;SDS011;59391;52.504;13.438;2023-04-29T04:45:34;31.83;;;20.10;;
71562;SDS011;59391;52.504;13.438;2023-04-29T04:48:00;31.30;;;19.63;;
71562;SDS011;59391;52.504;13.438;2023-04-29T04:50:29;31.85;;;19.05;;
71562;SDS011;59391;52.504;13.438;2023-04-29T04:52:55;32.10;;;19.30;;
71562;SDS011;59391;52.504;13.438;2023-04-29T04:55:21;31.85;;;19.75;;
71562;SDS011;59391;52.504;13.438;2023-04-29T04:57:47;33.03;;;20.10;;
71562;SDS011;59391;52.504;13.438;2023-04-29T05:00:13;31.23;;;20.13;;
71562;SDS011;59391;52.504;13.438;2023-04-29T05:02:39;34.17;;;19.02;;
71562;SDS011;59391;52.504;13.438;2023-04-29T05:05:05;34.25;;;20.15;;
71562;SDS011;59391;52.504;13.438;2023-04-29T05:07:31;34.38;;;19.85;;
71562;SDS011;59391;52.504;13.438;2023-04-29T05:10:00;32.30;;;19.97;;
71562;SDS011;59391;52.504;13.438;2023-04-29T05:12:27;34.55;;;20.65;;
71562;SDS011;59391;52.504;13.438;2023-04-29T05:14:55;31.98;;;20.50;;
71562;SDS011;59391;52.504;13.438;2023-04-29T05:17:21;34.00;;;20.02;;
71562;SDS011;59391;52.504;13.438;2023-04-29T05:19:47;31.57;;;18.97;;
71562;SDS011;59391;52.504;13.438;2023-04-29T05:22:12;34.08;;;20.65;;
71562;SDS011;59391;52.504;13.438;2023-04-29T05:24:38;32.13;;;19.87;;
71562;SDS011;59391;52.504;13.438;2023-04-29T05:27:03;34.33;;;19.90;;
71562;SDS011;59391;52.504;13.438;2023-04-29T05:29:29;31.90;;;19.45;;
71562;SDS011;59391;52.504;13.438;2023-04-29T05:31:55;35.10;;;21.47;;
71562;SDS011;59391;52.504;13.438;2023-04-29T05:34:20;33.63;;;20.55;;
71562;SDS011;59391;52.504;13.438;2023-04-29T05:36:46;33.37;;;19.53;;
71562;SDS011;59391;52.504;13.438;2023-04-29T05:39:12;32.90;;;19.55;;
71562;SDS011;59391;52.504;13.438;2023-04-29T05:41:37;32.17;;;20.10;;
71562;SDS011;59391;52.504;13.438;2023-04-29T05:44:03;31.20;;;19.80;;
71562;SDS011;59391;52.504;13.438;2023-04-29T05:46:29;33.07;;;19.97;;
71562;SDS011;59391;52.504;13.438;2023-04-29T05:48:54;33.45;;;20.02;;
71562;SDS011;59391;52.504;13.438;2023-04-29T05:51:20;31.20;;;18.63;;
71562;SDS011;59391;52.504;13.438;2023-04-29T05:53:46;35.13;;;20.20;;
71562;SDS011;59391;52.504;13.438;2023-04-29T05:56:11;35.38;;;19.70;;
71562;SDS011;59391;52.504;13.438;2023-04-29T05:58:37;35.53;;;20.53;;
71562;SDS011;59391;52.504;13.438;2023-04-29T06:01:02;34.00;;;19.42;;
71562;SDS011;59391;52.504;13.438;2023-04-29T06:03:28;36.27;;;19.70;;
71562;SDS011;59391;52.504;13.438;2023-04-29T06:05:55;31.38;;;18.17;;
71562;SDS011;59391;52.504;13.438;2023-04-29T06:08:20;31.10;;;17.67;;
71562;SDS011;59391;52.504;13.438;2023-04-29T06:10:46;31.13;;;18.30;;
71562;SDS011;59391;52.504;13.438;2023-04-29T06:13:12;33.40;;;19.50;;
71562;SDS011;59391;52.504;13.438;2023-04-29T06:15:37;32.90;;;18.75;;
71562;SDS011;59391;52.504;13.438;2023-04-29T06:18:03;33.20;;;18.90;;
71562;SDS011;59391;52.504;13.438;2023-04-29T06:20:29;33.57;;;18.53;;
71562;SDS011;59391;52.504;13.438;2023-04-29T06:22:54;33.42;;;18.15;;
71562;SDS011;59391;52.504;13.438;2023-04-29T06:25:20;31.03;;;18.27;;
71562;SDS011;59391;52.504;13.438;2023-04-29T06:27:46;30.90;;;18.17;;
71562;SDS011;59391;52.504;13.438;2023-04-29T06:30:13;34.50;;;18.92;;
71562;SDS011;59391;52.504;13.438;2023-04-29T06:32:39;29.40;;;16.33;;
71562;SDS011;59391;52.504;13.438;2023-04-29T06:35:05;31.58;;;17.30;;
71562;SDS011;59391;52.504;13.438;2023-04-29T06:37:31;29.67;;;16.67;;
71562;SDS011;59391;52.504;13.438;2023-04-29T06:39:57;34.78;;;18.40;;
71562;SDS011;59391;52.504;13.438;2023-04-29T06:42:22;32.27;;;17.70;;
71562;SDS011;59391;52.504;13.438;2023-04-29T06:44:48;29.07;;;17.13;;
71562;SDS011;59391;52.504;13.438;2023-04-29T06:47:14;28.63;;;16.38;;
71562;SDS011;59391;52.504;13.438;2023-04-29T06:49:39;28.43;;;15.97;;
71562;SDS011;59391;52.504;13.438;2023-04-29T06:52:07;27.00;;;15.85;;
71562;SDS011;59391;52.504;13.438;2023-04-29T06:54:33;30.20;;;16.20;;
71562;SDS011;59391;52.504;13.438;2023-04-29T06:56:59;28.83;;;16.63;;
71562;SDS011;59391;52.504;13.438;2023-04-29T06:59:24;28.40;;;16.23;;
71562;SDS011;59391;52.504;13.438;2023-04-29T07:01:50;24.95;;;14.45;;
71562;SDS011;59391;52.504;13.438;2023-04-29T07:04:16;27.00;;;14.93;;
71562;SDS011;59391;52.504;13.438;2023-04-29T07:06:41;25.10;;;13.80;;
71562;SDS011;59391;52.504;13.438;2023-04-29T07:09:10;26.45;;;15.63;;
71562;SDS011;59391;52.504;13.438;2023-04-29T07:11:39;27.65;;;15.52;;
71562;SDS011;59391;52.504;13.438;2023-04-29T07:14:05;26.40;;;15.53;;
71562;SDS011;59391;52.504;13.438;2023-04-29T07:16:31;26.40;;;15.23;;
71562;SDS011;59391;52.504;13.438;2023-04-29T07:18:57;26.23;;;15.05;;
71562;SDS011;59391;52.504;13.438;2023-04-29T07:21:23;26.90;;;14.50;;
71562;SDS011;59391;52.504;13.438;2023-04-29T07:23:49;26.53;;;15.03;;
71562;SDS011;59391;52.504;13.438;2023-04-29T07:26:15;25.35;;;14.65;;
71562;SDS011;59391;52.504;13.438;2023-04-29T07:28:41;28.70;;;16.20;;
71562;SDS011;59391;52.504;13.438;2023-04-29T07:31:08;26.87;;;15.43;;
71562;SDS011;59391;52.504;13.438;2023-04-29T07:33:36;30.92;;;15.95;;
71562;SDS011;59391;52.504;13.438;2023-04-29T07:36:02;25.48;;;14.73;;
71562;SDS011;59391;52.504;13.438;2023-04-29T07:38:28;27.35;;;16.23;;
71562;SDS011;59391;52.504;13.438;2023-04-29T07:40:54;27.80;;;15.67;;
71562;SDS011;59391;52.504;13.438;2023-04-29T07:43:20;24.25;;;15.45;;
71562;SDS011;59391;52.504;13.438;2023-04-29T07:45:46;27.83;;;16.73;;
71562;SDS011;59391;52.504;13.438;2023-04-29T07:48:12;25.30;;;15.52;;
71562;SDS011;59391;52.504;13.438;2023-04-29T07:50:38;27.27;;;15.95;;
71562;SDS011;59391;52.504;13.438;2023-04-29T07:53:04;25.23;;;14.67;;
71562;SDS011;59391;52.504;13.438;2023-04-29T07:55:30;30.25;;;16.20;;
71562;SDS011;59391;52.504;13.438;2023-04-29T07:57:56;23.45;;;15.88;;
71562;SDS011;59391;52.504;13.438;2023-04-29T08:00:23;25.03;;;15.87;;
71562;SDS011;59391;52.504;13.438;2023-04-29T08:02:55;24.23;;;14.45;;
71562;SDS011;59391;52.504;13.438;2023-04-29T08:05:21;25.88;;;14.98;;
71562;SDS011;59391;52.504;13.438;2023-04-29T08:07:51;21.27;;;14.18;;
71562;SDS011;59391;52.504;13.438;2023-04-29T08:10:17;19.27;;;14.00;;
71562;SDS011;59391;52.504;13.438;2023-04-29T08:12:46;22.00;;;14.37;;
71562;SDS011;59391;52.504;13.438;2023-04-29T08:15:13;21.13;;;13.85;;
71562;SDS011;59391;52.504;13.438;2023-04-29T08:17:40;19.85;;;14.13;;
71562;SDS011;59391;52.504;13.438;2023-04-29T08:20:05;19.98;;;13.52;;
71562;SDS011;59391;52.504;13.438;2023-04-29T08:22:32;19.35;;;13.65;;
71562;SDS011;59391;52.504;13.438;2023-04-29T08:24:58;20.23;;;13.68;;
71562;SDS011;59391;52.504;13.438;2023-04-29T08:27:24;25.50;;;16.55;;
71562;SDS011;59391;52.504;13.438;2023-04-29T08:29:50;18.92;;;13.68;;
71562;SDS011;59391;52.504;13.438;2023-04-29T08:32:16;19.35;;;13.95;;
71562;SDS011;59391;52.504;13.438;2023-04-29T08:34:42;19.27;;;13.43;;
71562;SDS011;59391;52.504;13.438;2023-04-29T08:37:08;20.60;;;13.27;;
71562;SDS011;59391;52.504;13.438;2023-04-29T08:39:35;18.85;;;12.98;;
71562;SDS011;59391;52.504;13.438;2023-04-29T08:42:10;18.00;;;12.85;;
71562;SDS011;59391;52.504;13.438;2023-04-29T08:44:36;18.38;;;13.23;;
71562;SDS011;59391;52.504;13.438;2023-04-29T08:47:04;18.98;;;13.75;;
71562;SDS011;59391;52.504;13.438;2023-04-29T08:49:31;20.70;;;14.02;;
71562;SDS011;59391;52.504;13.438;2023-04-29T08:51:57;20.83;;;13.85;;
71562;SDS011;59391;52.504;13.438;2023-04-29T08:54:24;22.50;;;14.90;;
71562;SDS011;59391;52.504;13.438;2023-04-29T08:56:51;20.48;;;13.80;;
71562;SDS011;59391;52.504;13.438;2023-04-29T08:59:19;22.20;;;14.02;;
71562;SDS011;59391;52.504;13.438;2023-04-29T09:01:46;21.83;;;14.07;;
71562;SDS011;59391;52.504;13.438;2023-04-29T09:04:31;21.48;;;14.85;;
71562;SDS011;59391;52.504;13.438;2023-04-29T09:07:12;21.08;;;14.63;;
71562;SDS011;59391;52.504;13.438;2023-04-29T09:09:38;22.88;;;15.35;;
71562;SDS011;59391;52.504;13.438;2023-04-29T09:12:05;26.80;;;15.70;;
71562;SDS011;59391;52.504;13.438;2023-04-29T09:14:31;26.63;;;15.82;;
71562;SDS011;59391;52.504;13.438;2023-04-29T09:17:03;25.45;;;15.88;;
71562;SDS011;59391;52.504;13.438;2023-04-29T09:19:29;28.10;;;16.90;;
71562;SDS011;59391;52.504;13.438;2023-04-29T09:22:00;27.88;;;16.17;;
71562;SDS011;59391;52.504;13.438;2023-04-29T09:24:31;27.52;;;16.17;;
71562;SDS011;59391;52.504;13.438;2023-04-29T09:26:58;26.37;;;16.67;;
71562;SDS011;59391;52.504;13.438;2023-04-29T09:29:24;27.60;;;16.73;;
71562;SDS011;59391;52.504;13.438;2023-04-29T09:31:50;28.67;;;17.05;;
71562;SDS011;59391;52.504;13.438;2023-04-29T09:34:29;29.33;;;17.00;;
71562;SDS011;59391;52.504;13.438;2023-04-29T09:37:06;30.45;;;18.08;;
71562;SDS011;59391;52.504;13.438;2023-04-29T09:39:52;33.03;;;18.30;;
71562;SDS011;59391;52.504;13.438;2023-04-29T09:42:18;33.15;;;17.67;;
71562;SDS011;59391;52.504;13.438;2023-04-29T09:44:44;32.75;;;18.40;;
71562;SDS011;59391;52.504;13.438;2023-04-29T09:47:10;30.83;;;18.47;;
71562;SDS011;59391;52.504;13.438;2023-04-29T09:49:40;34.70;;;19.75;;
71562;SDS011;59391;52.504;13.438;2023-04-29T09:52:13;35.13;;;20.25;;
71562;SDS011;59391;52.504;13.438;2023-04-29T09:54:41;36.90;;;21.10;;
71562;SDS011;59391;52.504;13.438;2023-04-29T09:57:09;35.38;;;20.58;;
71562;SDS011;59391;52.504;13.438;2023-04-29T09:59:37;39.35;;;21.10;;
71562;SDS011;59391;52.504;13.438;2023-04-29T10:02:06;40.88;;;22.65;;
71562;SDS011;59391;52.504;13.438;2023-04-29T10:04:43;41.47;;;21.95;;
71562;SDS011;59391;52.504;13.438;2023-04-29T10:07:14;43.60;;;24.05;;
71562;SDS011;59391;52.504;13.438;2023-04-29T10:09:43;45.03;;;24.60;;
71562;SDS011;59391;52.504;13.438;2023-04-29T10:12:11;43.47;;;24.48;;
71562;SDS011;59391;52.504;13.438;2023-04-29T10:14:42;46.60;;;25.75;;
71562;SDS011;59391;52.504;13.438;2023-04-29T10:17:23;49.03;;;27.27;;
71562;SDS011;59391;52.504;13.438;2023-04-29T10:20:14;49.15;;;26.23;;
71562;SDS011;59391;52.504;13.438;2023-04-29T10:22:50;51.25;;;27.48;;
71562;SDS011;59391;52.504;13.438;2023-04-29T10:25:19;53.03;;;28.80;;
71562;SDS011;59391;52.504;13.438;2023-04-29T10:27:49;54.25;;;29.02;;
71562;SDS011;59391;52.504;13.438;2023-04-29T10:30:17;53.10;;;28.13;;
71562;SDS011;59391;52.504;13.438;2023-04-29T10:32:48;55.83;;;30.50;;
71562;SDS011;59391;52.504;13.438;2023-04-29T10:35:16;57.67;;;29.75;;
71562;SDS011;59391;52.504;13.438;2023-04-29T10:37:49;54.33;;;29.50;;
71562;SDS011;59391;52.504;13.438;2023-04-29T10:43:04;50.47;;;28.48;;
71562;SDS011;59391;52.504;13.438;2023-04-29T10:45:30;57.13;;;28.90;;
71562;SDS011;59391;52.504;13.438;2023-04-29T10:53:13;47.20;;;27.98;;
71562;SDS011;59391;52.504;13.438;2023-04-29T10:55:47;46.55;;;27.08;;
71562;SDS011;59391;52.504;13.438;2023-04-29T10:58:33;45.10;;;26.20;;
71562;SDS011;59391;52.504;13.438;2023-04-29T11:00:59;43.28;;;26.35;;
71562;SDS011;59391;52.504;13.438;2023-04-29T11:03:44;41.78;;;26.20;;
71562;SDS011;59391;52.504;13.438;2023-04-29T11:06:13;38.95;;;25.42;;
71562;SDS011;59391;52.504;13.438;2023-04-29T11:08:40;39.75;;;25.20;;
71562;SDS011;59391;52.504;13.438;2023-04-29T11:11:07;37.28;;;23.88;;
71562;SDS011;59391;52.504;13.438;2023-04-29T11:13:37;39.13;;;25.52;;
71562;SDS011;59391;52.504;13.438;2023-04-29T11:16:10;38.88;;;24.90;;
71562;SDS011;59391;52.504;13.438;2023-04-29T11:19:03;33.75;;;22.25;;
71562;SDS011;59391;52.504;13.438;2023-04-29T11:21:37;39.05;;;24.60;;
71562;SDS011;59391;52.504;13.438;2023-04-29T11:24:03;37.88;;;24.90;;
71562;SDS011;59391;52.504;13.438;2023-04-29T11:26:34;36.10;;;23.42;;
71562;SDS011;59391;52.504;13.438;2023-04-29T11:29:00;35.78;;;22.80;;
71562;SDS011;59391;52.504;13.438;2023-04-29T11:31:30;34.17;;;23.00;;
71562;SDS011;59391;52.504;13.438;2023-04-29T11:33:57;37.15;;;23.70;;
71562;SDS011;59391;52.504;13.438;2023-04-29T11:36:24;34.28;;;22.92;;
71562;SDS011;59391;52.504;13.438;2023-04-29T11:38:51;36.00;;;22.60;;
71562;SDS011;59391;52.504;13.438;2023-04-29T11:41:17;33.92;;;23.25;;
71562;SDS011;59391;52.504;13.438;2023-04-29T11:43:46;39.00;;;25.15;;
71562;SDS011;59391;52.504;13.438;2023-04-29T11:46:20;40.47;;;26.75;;
71562;SDS011;59391;52.504;13.438;2023-04-29T11:48:46;31.38;;;21.10;;
71562;SDS011;59391;52.504;13.438;2023-04-29T11:51:14;29.48;;;20.98;;
71562;SDS011;59391;52.504;13.438;2023-04-29T11:53:41;31.25;;;21.08;;
71562;SDS011;59391;52.504;13.438;2023-04-29T11:56:08;29.30;;;20.77;;
71562;SDS011;59391;52.504;13.438;2023-04-29T11:58:35;29.48;;;20.55;;
71562;SDS011;59391;52.504;13.438;2023-04-29T12:01:02;28.20;;;19.98;;
71562;SDS011;59391;52.504;13.438;2023-04-29T12:03:30;27.65;;;19.88;;
71562;SDS011;59391;52.504;13.438;2023-04-29T12:05:57;34.58;;;21.77;;
71562;SDS011;59391;52.504;13.438;2023-04-29T12:08:26;25.63;;;18.73;;
71562;SDS011;59391;52.504;13.438;2023-04-29T12:10:54;25.00;;;18.05;;
71562;SDS011;59391;52.504;13.438;2023-04-29T12:13:22;27.02;;;18.38;;
71562;SDS011;59391;52.504;13.438;2023-04-29T12:15:51;25.77;;;18.27;;
71562;SDS011;59391;52.504;13.438;2023-04-29T12:18:18;29.33;;;17.73;;
71562;SDS011;59391;52.504;13.438;2023-04-29T12:20:46;23.85;;;16.52;;
71562;SDS011;59391;52.504;13.438;2023-04-29T12:23:13;22.02;;;16.58;;
71562;SDS011;59391;52.504;13.438;2023-04-29T12:25:48;22.33;;;16.73;;
71562;SDS011;59391;52.504;13.438;2023-04-29T12:28:37;22.77;;;16.15;;
71562;SDS011;59391;52.504;13.438;2023-04-29T12:31:05;23.95;;;16.17;;
71562;SDS011;59391;52.504;13.438;2023-04-29T12:33:35;23.92;;;16.48;;
71562;SDS011;59391;52.504;13.438;2023-04-29T12:36:01;23.88;;;16.88;;
71562;SDS011;59391;52.504;13.438;2023-04-29T12:38:30;22.53;;;16.43;;
71562;SDS011;59391;52.504;13.438;2023-04-29T12:40:57;25.27;;;16.40;;
71562;SDS011;59391;52.504;13.438;2023-04-29T12:43:28;23.63;;;16.60;;
71562;SDS011;59391;52.504;13.438;2023-04-29T12:46:06;24.10;;;15.48;;
71562;SDS011;59391;52.504;13.438;2023-04-29T12:48:33;22.77;;;15.38;;
71562;SDS011;59391;52.504;13.438;2023-04-29T12:51:02;19.43;;;13.77;;
71562;SDS011;59391;52.504;13.438;2023-04-29T12:53:35;20.27;;;13.48;;
71562;SDS011;59391;52.504;13.438;2023-04-29T12:56:02;19.42;;;13.55;;
71562;SDS011;59391;52.504;13.438;2023-04-29T12:58:28;18.38;;;12.32;;
71562;SDS011;59391;52.504;13.438;2023-04-29T13:00:55;17.08;;;12.68;;
71562;SDS011;59391;52.504;13.438;2023-04-29T13:03:21;14.83;;;10.33;;
71562;SDS011;59391;52.504;13.438;2023-04-29T13:05:47;15.55;;;10.50;;
71562;SDS011;59391;52.504;13.438;2023-04-29T13:08:16;15.02;;;10.73;;
71562;SDS011;59391;52.504;13.438;2023-04-29T13:10:42;15.40;;;10.65;;
71562;SDS011;59391;52.504;13.438;2023-04-29T13:13:08;15.67;;;9.73;;
71562;SDS011;59391;52.504;13.438;2023-04-29T13:15:34;15.07;;;9.90;;
71562;SDS011;59391;52.504;13.438;2023-04-29T13:18:03;11.80;;;8.90;;
71562;SDS011;59391;52.504;13.438;2023-04-29T13:20:29;12.98;;;8.95;;
71562;SDS011;59391;52.504;13.438;2023-04-29T13:22:57;12.98;;;9.05;;
71562;SDS011;59391;52.504;13.438;2023-04-29T13:25:22;13.67;;;10.07;;
71562;SDS011;59391;52.504;13.438;2023-04-29T13:27:48;12.93;;;9.35;;
71562;SDS011;59391;52.504;13.438;2023-04-29T13:30:13;12.98;;;9.13;;
71562;SDS011;59391;52.504;13.438;2023-04-29T13:32:39;13.98;;;8.75;;
71562;SDS011;59391;52.504;13.438;2023-04-29T13:35:06;12.77;;;8.70;;
71562;SDS011;59391;52.504;13.438;2023-04-29T13:37:32;13.02;;;8.60;;
71562;SDS011;59391;52.504;13.438;2023-04-29T13:39:58;11.55;;;8.32;;
71562;SDS011;59391;52.504;13.438;2023-04-29T13:42:24;13.10;;;8.80;;
71562;SDS011;59391;52.504;13.438;2023-04-29T13:44:50;11.32;;;8.35;;
71562;SDS011;59391;52.504;13.438;2023-04-29T13:47:20;11.95;;;8.10;;
71562;SDS011;59391;52.504;13.438;2023-04-29T13:49:46;11.38;;;8.10;;
71562;SDS011;59391;52.504;13.438;2023-04-29T13:52:12;11.40;;;8.27;;
71562;SDS011;59391;52.504;13.438;2023-04-29T13:54:38;12.57;;;8.70;;
71562;SDS011;59391;52.504;13.438;2023-04-29T13:57:04;13.23;;;9.15;;
71562;SDS011;59391;52.504;13.438;2023-04-29T13:59:30;16.80;;;10.40;;
71562;SDS011;59391;52.504;13.438;2023-04-29T14:01:58;13.50;;;10.02;;
71562;SDS011;59391;52.504;13.438;2023-04-29T14:04:25;13.48;;;10.15;;
71562;SDS011;59391;52.504;13.438;2023-04-29T14:06:54;14.23;;;9.55;;
71562;SDS011;59391;52.504;13.438;2023-04-29T14:09:20;15.15;;;10.43;;
71562;SDS011;59391;52.504;13.438;2023-04-29T14:11:46;16.10;;;9.70;;
71562;SDS011;59391;52.504;13.438;2023-04-29T14:14:13;14.73;;;10.32;;
71562;SDS011;59391;52.504;13.438;2023-04-29T14:16:40;15.25;;;10.57;;
71562;SDS011;59391;52.504;13.438;2023-04-29T14:19:06;15.23;;;9.93;;
71562;SDS011;59391;52.504;13.438;2023-04-29T14:21:32;17.30;;;10.77;;
71562;SDS011;59391;52.504;13.438;2023-04-29T14:23:58;15.38;;;10.25;;
71562;SDS011;59391;52.504;13.438;2023-04-29T14:26:26;16.77;;;10.60;;
71562;SDS011;59391;52.504;13.438;2023-04-29T14:28:52;15.03;;;10.03;;
71562;SDS011;59391;52.504;13.438;2023-04-29T14:31:29;14.55;;;10.57;;